Time;durP1;ratioP1;P1;durP2;ratioP2;P2;SDS_P1;SDS_P2;PMS_P1;PMS_P2;Temp;Humidity;BMP_temperature;BMP_pressure;BME280_temperature;BME280_humidity;BME280_pressure;Samples;Min_cycle;Max_cycle;Signal;HPM_P1;HPM_P2
2023/06/13 00:01:25;;;;;;;6.70;4.10;;;;;;;;;;5093905;28;20474;-73
2023/06/13 00:03:53;;;;;;;8.07;4.37;;;;;;;;;;5093859;28;20798;-74
2023/06/13 00:06:22;;;;;;;7.23;3.73;;;;;;;;;;5093655;28;20439;-73
2023/06/13 00:08:49;;;;;;;9.83;4.23;;;;;;;;;;5093542;28;20465;-73
2023/06/13 00:11:16;;;;;;;5.33;4.13;;;;;;;;;;5093933;28;20544;-74
2023/06/13 00:13:45;;;;;;;16.70;4.47;;;;;;;;;;5094182;28;20449;-75
2023/06/13 00:16:12;;;;;;;10.33;3.90;;;;;;;;;;5094311;28;20809;-75
2023/06/13 00:18:40;;;;;;;8.60;4.40;;;;;;;;;;5094440;28;20966;-75
2023/06/13 00:21:07;;;;;;;5.50;4.03;;;;;;;;;;5093799;28;20569;-75
2023/06/13 00:23:35;;;;;;;6.30;4.17;;;;;;;;;;5094059;28;20443;-75
2023/06/13 00:26:03;;;;;;;8.10;4.23;;;;;;;;;;5094033;28;20851;-75
2023/06/13 00:28:30;;;;;;;7.17;4.73;;;;;;;;;;5094200;28;20857;-75
2023/06/13 00:30:57;;;;;;;10.07;3.90;;;;;;;;;;5094227;28;20494;-75
2023/06/13 00:33:31;;;;;;;5.90;4.17;;;;;;;;;;5094108;28;20460;-75
2023/06/13 00:35:58;;;;;;;5.07;3.40;;;;;;;;;;5094095;28;20442;-75
2023/06/13 00:38:27;;;;;;;10.83;3.80;;;;;;;;;;5093293;28;20458;-75
2023/06/13 00:40:55;;;;;;;6.43;3.93;;;;;;;;;;5093605;28;20483;-75
2023/06/13 00:43:23;;;;;;;5.60;3.53;;;;;;;;;;5093296;28;20450;-75
2023/06/13 00:45:50;;;;;;;4.53;3.67;;;;;;;;;;5093295;28;20933;-75
2023/06/13 00:48:17;;;;;;;5.43;4.03;;;;;;;;;;5093143;28;20825;-76
2023/06/13 00:50:45;;;;;;;4.97;4.37;;;;;;;;;;5093671;28;20475;-75
2023/06/13 00:53:16;;;;;;;4.70;3.67;;;;;;;;;;5093134;28;20482;-75
2023/06/13 00:55:44;;;;;;;5.50;4.87;;;;;;;;;;5093057;28;20840;-75
2023/06/13 00:58:13;;;;;;;7.87;4.27;;;;;;;;;;5093447;28;20522;-76
2023/06/13 01:00:43;;;;;;;7.00;4.70;;;;;;;;;;5093093;28;20473;-75
2023/06/13 01:03:15;;;;;;;6.60;4.13;;;;;;;;;;5093336;28;20493;-75
2023/06/13 01:05:42;;;;;;;7.23;4.33;;;;;;;;;;5093097;28;20556;-75
2023/06/13 01:08:11;;;;;;;7.53;4.20;;;;;;;;;;5092929;28;20450;-75
2023/06/13 01:10:40;;;;;;;5.10;3.60;;;;;;;;;;5092855;28;20994;-75
2023/06/13 01:13:10;;;;;;;5.20;4.47;;;;;;;;;;5092943;28;20507;-75
2023/06/13 01:15:42;;;;;;;5.87;3.80;;;;;;;;;;5093305;28;20427;-75
2023/06/13 01:18:10;;;;;;;6.70;3.90;;;;;;;;;;5093179;28;20431;-76
2023/06/13 01:20:38;;;;;;;6.57;4.10;;;;;;;;;;5092859;28;20467;-75
2023/06/13 01:23:15;;;;;;;7.70;4.50;;;;;;;;;;5092802;28;20454;-75
2023/06/13 01:25:48;;;;;;;6.97;4.70;;;;;;;;;;5092863;28;20847;-75
2023/06/13 01:28:17;;;;;;;11.63;4.30;;;;;;;;;;5092816;28;20450;-75
2023/06/13 01:30:45;;;;;;;7.13;4.03;;;;;;;;;;5092954;28;20482;-75
2023/06/13 01:33:13;;;;;;;6.30;4.30;;;;;;;;;;5092869;28;20490;-75
2023/06/13 01:35:41;;;;;;;8.07;5.23;;;;;;;;;;5092804;28;20454;-75
2023/06/13 01:38:08;;;;;;;6.67;4.77;;;;;;;;;;5092661;28;20454;-75
2023/06/13 01:40:35;;;;;;;7.50;4.13;;;;;;;;;;5092814;28;20545;-75
2023/06/13 01:43:02;;;;;;;9.00;3.93;;;;;;;;;;5092858;28;20454;-76
2023/06/13 01:45:31;;;;;;;10.87;4.60;;;;;;;;;;5092519;28;20482;-75
2023/06/13 01:48:01;;;;;;;5.30;3.90;;;;;;;;;;5092431;28;20450;-75
2023/06/13 01:50:32;;;;;;;6.47;4.47;;;;;;;;;;5092314;28;20481;-75
2023/06/13 01:53:03;;;;;;;6.47;4.17;;;;;;;;;;5092557;28;20553;-74
2023/06/13 01:55:32;;;;;;;5.57;4.40;;;;;;;;;;5092518;28;20480;-76
2023/06/13 01:58:05;;;;;;;10.27;4.30;;;;;;;;;;5092415;28;20776;-74
2023/06/13 02:00:34;;;;;;;5.10;4.37;;;;;;;;;;5092676;28;20475;-75
2023/06/13 02:03:03;;;;;;;8.10;4.33;;;;;;;;;;5092731;28;20939;-75
2023/06/13 02:05:30;;;;;;;7.57;4.70;;;;;;;;;;5092481;28;20561;-74
2023/06/13 02:07:58;;;;;;;6.93;4.67;;;;;;;;;;5094723;28;20849;-74
2023/06/13 02:10:25;;;;;;;6.30;4.37;;;;;;;;;;5095736;28;20474;-75
2023/06/13 02:12:52;;;;;;;5.47;4.03;;;;;;;;;;5096105;28;20476;-75
2023/06/13 02:15:19;;;;;;;8.27;4.40;;;;;;;;;;5095776;28;20451;-75
2023/06/13 02:17:48;;;;;;;6.17;3.73;;;;;;;;;;5096138;28;20951;-75
2023/06/13 02:20:15;;;;;;;7.00;5.07;;;;;;;;;;5095832;28;20509;-75
2023/06/13 02:22:42;;;;;;;9.80;4.47;;;;;;;;;;5096047;28;20868;-75
2023/06/13 02:25:10;;;;;;;6.90;4.23;;;;;;;;;;5096057;28;20494;-72
2023/06/13 02:27:38;;;;;;;4.93;3.73;;;;;;;;;;5095866;28;20952;-71
2023/06/13 02:30:08;;;;;;;5.33;3.90;;;;;;;;;;5095480;28;20509;-71
2023/06/13 02:32:36;;;;;;;5.07;4.57;;;;;;;;;;5095663;28;20512;-71
2023/06/13 02:35:05;;;;;;;12.50;5.10;;;;;;;;;;5095549;28;20483;-71
2023/06/13 02:37:32;;;;;;;6.10;3.70;;;;;;;;;;5095633;28;20457;-71
2023/06/13 02:39:59;;;;;;;6.40;4.33;;;;;;;;;;5095256;28;20825;-71
2023/06/13 02:42:28;;;;;;;9.70;3.80;;;;;;;;;;5095429;28;20455;-71
2023/06/13 02:44:55;;;;;;;8.73;4.37;;;;;;;;;;5095438;28;20451;-71
2023/06/13 02:47:22;;;;;;;6.40;4.17;;;;;;;;;;5095393;28;20462;-71
2023/06/13 02:49:50;;;;;;;9.00;4.87;;;;;;;;;;5094724;28;20569;-72
2023/06/13 02:52:19;;;;;;;11.00;4.10;;;;;;;;;;5095175;28;20497;-71
2023/06/13 02:54:46;;;;;;;14.80;4.80;;;;;;;;;;5095200;28;21009;-71
2023/06/13 02:57:13;;;;;;;4.13;3.07;;;;;;;;;;5094889;28;20483;-72
2023/06/13 02:59:42;;;;;;;6.30;4.03;;;;;;;;;;5094865;28;20503;-71
2023/06/13 03:02:09;;;;;;;9.77;4.60;;;;;;;;;;5095298;28;20952;-71
2023/06/13 03:04:36;;;;;;;5.87;4.90;;;;;;;;;;5094788;28;20454;-71
2023/06/13 03:07:04;;;;;;;8.13;4.73;;;;;;;;;;5094586;28;20447;-71
2023/06/13 03:09:33;;;;;;;10.00;4.10;;;;;;;;;;5094646;28;20892;-71
2023/06/13 03:12:00;;;;;;;7.90;4.00;;;;;;;;;;5094000;28;20455;-71
2023/06/13 03:14:28;;;;;;;6.00;4.43;;;;;;;;;;5094386;28;20499;-71
2023/06/13 03:16:55;;;;;;;5.80;3.80;;;;;;;;;;5093722;28;20626;-71
2023/06/13 03:19:22;;;;;;;7.07;5.03;;;;;;;;;;5093775;28;20471;-71
2023/06/13 03:21:49;;;;;;;6.77;4.70;;;;;;;;;;5093844;28;20454;-72
2023/06/13 03:24:16;;;;;;;8.43;5.20;;;;;;;;;;5093801;28;20454;-72
2023/06/13 03:26:45;;;;;;;12.73;6.57;;;;;;;;;;5093839;28;20458;-72
2023/06/13 03:29:12;;;;;;;8.77;4.50;;;;;;;;;;5093475;28;20557;-72
2023/06/13 03:31:39;;;;;;;6.03;3.87;;;;;;;;;;5093762;28;20450;-72
2023/06/13 03:34:06;;;;;;;7.20;4.40;;;;;;;;;;5093708;28;20458;-72
2023/06/13 03:36:34;;;;;;;8.47;4.70;;;;;;;;;;5093577;28;20521;-72
2023/06/13 03:39:01;;;;;;;5.57;4.50;;;;;;;;;;5093236;28;20458;-72
2023/06/13 03:41:28;;;;;;;11.77;5.00;;;;;;;;;;5093887;28;20462;-71
2023/06/13 03:43:57;;;;;;;6.00;4.10;;;;;;;;;;5093577;28;20443;-72
2023/06/13 03:46:24;;;;;;;4.13;3.73;;;;;;;;;;5093375;28;20470;-71
2023/06/13 03:48:51;;;;;;;5.50;3.80;;;;;;;;;;5092963;28;20442;-71
2023/06/13 03:51:18;;;;;;;6.00;4.07;;;;;;;;;;5093408;28;20450;-72
2023/06/13 03:53:45;;;;;;;8.17;5.00;;;;;;;;;;5093491;28;20457;-72
2023/06/13 03:56:13;;;;;;;4.83;4.07;;;;;;;;;;5093098;28;20486;-72
2023/06/13 03:58:40;;;;;;;5.07;4.40;;;;;;;;;;5093252;28;20510;-72
2023/06/13 04:01:08;;;;;;;5.40;4.63;;;;;;;;;;5093040;28;20549;-74
2023/06/13 04:03:39;;;;;;;5.63;4.07;;;;;;;;;;5093135;28;20474;-74
2023/06/13 04:06:06;;;;;;;9.00;5.17;;;;;;;;;;5093094;28;20458;-74
2023/06/13 04:08:36;;;;;;;8.30;4.77;;;;;;;;;;5091870;28;20462;-74
2023/06/13 04:11:03;;;;;;;8.43;4.97;;;;;;;;;;5092557;28;20849;-74
2023/06/13 04:13:30;;;;;;;6.33;4.57;;;;;;;;;;5092716;28;20856;-74
2023/06/13 04:15:57;;;;;;;9.40;5.43;;;;;;;;;;5092730;28;20541;-74
2023/06/13 04:18:26;;;;;;;7.07;4.80;;;;;;;;;;5092564;28;20451;-74
2023/06/13 04:20:53;;;;;;;6.57;5.00;;;;;;;;;;5093009;28;20824;-73
2023/06/13 04:23:21;;;;;;;6.07;4.37;;;;;;;;;;5092627;28;20965;-74
2023/06/13 04:25:48;;;;;;;12.83;4.53;;;;;;;;;;5093124;28;20512;-74
2023/06/13 04:28:15;;;;;;;8.93;4.97;;;;;;;;;;5092279;28;20461;-75
2023/06/13 04:30:46;;;;;;;5.90;3.83;;;;;;;;;;5092111;28;20483;-74
2023/06/13 04:33:16;;;;;;;6.17;4.60;;;;;;;;;;5092519;28;20459;-74
2023/06/13 04:35:46;;;;;;;7.60;3.63;;;;;;;;;;5092502;28;20482;-74
2023/06/13 04:38:13;;;;;;;7.33;4.97;;;;;;;;;;5092304;28;20465;-73
2023/06/13 04:40:41;;;;;;;5.60;4.57;;;;;;;;;;5092477;28;20986;-74
2023/06/13 04:43:09;;;;;;;8.40;3.93;;;;;;;;;;5092275;28;20455;-74
2023/06/13 04:45:36;;;;;;;6.37;4.70;;;;;;;;;;5092466;28;20871;-74
2023/06/13 04:48:04;;;;;;;5.47;3.23;;;;;;;;;;5092092;28;20827;-73
2023/06/13 04:50:33;;;;;;;5.90;4.20;;;;;;;;;;5091780;28;20469;-74
2023/06/13 04:53:02;;;;;;;6.73;3.43;;;;;;;;;;5092336;28;20534;-74
2023/06/13 04:55:32;;;;;;;4.47;3.23;;;;;;;;;;5092589;28;20458;-74
2023/06/13 04:58:00;;;;;;;8.83;4.07;;;;;;;;;;5092408;28;20466;-74
2023/06/13 05:00:27;;;;;;;8.10;4.37;;;;;;;;;;5092117;28;20502;-74
2023/06/13 05:02:55;;;;;;;5.27;4.43;;;;;;;;;;5092261;28;20455;-74
2023/06/13 05:05:22;;;;;;;11.63;3.60;;;;;;;;;;5076260;28;20459;-74
2023/06/13 05:07:55;;;;;;;4.73;3.43;;;;;;;;;;5071761;28;21002;-74
2023/06/13 05:10:23;;;;;;;7.30;3.70;;;;;;;;;;5071844;28;20469;-75
2023/06/13 05:12:50;;;;;;;14.43;4.03;;;;;;;;;;5072048;28;20452;-74
2023/06/13 05:15:18;;;;;;;5.03;3.60;;;;;;;;;;5071562;28;20475;-74
2023/06/13 05:17:46;;;;;;;6.03;3.23;;;;;;;;;;5071866;28;20863;-74
2023/06/13 05:20:14;;;;;;;8.37;4.10;;;;;;;;;;5071696;28;20499;-75
2023/06/13 05:22:42;;;;;;;5.33;3.70;;;;;;;;;;5086544;28;20498;-75
2023/06/13 05:25:09;;;;;;;7.53;4.03;;;;;;;;;;5091947;28;20455;-74
2023/06/13 05:27:38;;;;;;;7.80;3.63;;;;;;;;;;5091760;28;20454;-75
2023/06/13 05:30:08;;;;;;;5.50;4.53;;;;;;;;;;5091542;28;20561;-75
2023/06/13 05:32:35;;;;;;;7.57;3.87;;;;;;;;;;5092392;28;20823;-74
2023/06/13 05:35:03;;;;;;;5.90;3.50;;;;;;;;;;5091965;28;20455;-74
2023/06/13 05:37:30;;;;;;;7.33;3.77;;;;;;;;;;5091586;28;21076;-75
2023/06/13 05:39:57;;;;;;;4.33;3.70;;;;;;;;;;5091798;28;20470;-75
2023/06/13 05:42:24;;;;;;;5.30;3.60;;;;;;;;;;5093341;28;20828;-74
2023/06/13 05:44:53;;;;;;;5.50;3.17;;;;;;;;;;5095910;28;20446;-74
2023/06/13 05:47:20;;;;;;;4.90;3.40;;;;;;;;;;5095724;28;20450;-74
2023/06/13 05:49:47;;;;;;;5.87;2.93;;;;;;;;;;5095355;28;20473;-74
2023/06/13 05:52:14;;;;;;;5.83;3.60;;;;;;;;;;5094478;28;20451;-74
2023/06/13 05:54:41;;;;;;;3.63;3.30;;;;;;;;;;5095567;28;20562;-74
2023/06/13 05:57:08;;;;;;;4.20;3.40;;;;;;;;;;5095175;28;20493;-74
2023/06/13 05:59:35;;;;;;;5.67;3.63;;;;;;;;;;5095221;28;20513;-74
2023/06/13 06:02:04;;;;;;;4.43;4.03;;;;;;;;;;5095609;28;20461;-74
2023/06/13 06:04:31;;;;;;;7.43;2.87;;;;;;;;;;5095108;28;20454;-75
2023/06/13 06:06:58;;;;;;;6.03;2.90;;;;;;;;;;5095183;28;20958;-74
2023/06/13 06:09:25;;;;;;;6.10;2.70;;;;;;;;;;5094757;28;20851;-74
2023/06/13 06:11:52;;;;;;;4.53;3.17;;;;;;;;;;5095216;28;20450;-74
2023/06/13 06:14:19;;;;;;;4.20;2.63;;;;;;;;;;5095146;28;20458;-74
2023/06/13 06:16:46;;;;;;;4.10;2.60;;;;;;;;;;5095347;28;20499;-74
2023/06/13 06:19:14;;;;;;;4.63;2.70;;;;;;;;;;5094526;28;20474;-74
2023/06/13 06:21:42;;;;;;;6.80;3.27;;;;;;;;;;5095066;28;20450;-74
2023/06/13 06:24:09;;;;;;;2.80;2.60;;;;;;;;;;5094873;28;20799;-75
2023/06/13 06:26:36;;;;;;;7.70;3.37;;;;;;;;;;5094910;28;20460;-75
2023/06/13 06:29:03;;;;;;;4.60;3.40;;;;;;;;;;5095017;28;20970;-75
2023/06/13 06:31:30;;;;;;;3.43;3.10;;;;;;;;;;5094959;28;20454;-74
2023/06/13 06:33:57;;;;;;;4.13;3.33;;;;;;;;;;5094683;28;20524;-74
2023/06/13 06:36:26;;;;;;;5.43;2.77;;;;;;;;;;5094741;28;20494;-74
2023/06/13 06:38:53;;;;;;;6.10;3.27;;;;;;;;;;5094468;28;20465;-74
2023/06/13 06:41:20;;;;;;;4.60;3.03;;;;;;;;;;5094572;28;20455;-75
2023/06/13 06:43:47;;;;;;;3.93;3.37;;;;;;;;;;5095017;28;20486;-74
2023/06/13 06:46:14;;;;;;;3.23;2.80;;;;;;;;;;5094389;28;20446;-74
2023/06/13 06:48:41;;;;;;;5.00;2.97;;;;;;;;;;5093907;28;20494;-74
2023/06/13 06:51:08;;;;;;;2.53;2.33;;;;;;;;;;5094256;28;20477;-74
2023/06/13 06:53:36;;;;;;;3.13;2.50;;;;;;;;;;5093973;28;20897;-75
2023/06/13 06:56:04;;;;;;;5.73;3.50;;;;;;;;;;5094252;28;20838;-74
2023/06/13 06:58:31;;;;;;;7.70;2.87;;;;;;;;;;5094137;28;20490;-74
2023/06/13 07:00:58;;;;;;;3.07;2.77;;;;;;;;;;5093987;28;20475;-74
2023/06/13 07:03:25;;;;;;;4.40;2.50;;;;;;;;;;5094507;28;20482;-75
2023/06/13 07:05:52;;;;;;;3.53;2.40;;;;;;;;;;5094229;28;20458;-75
2023/06/13 07:08:19;;;;;;;4.33;2.73;;;;;;;;;;5093751;28;20447;-75
2023/06/13 07:10:48;;;;;;;3.30;2.90;;;;;;;;;;5093892;28;20587;-74
2023/06/13 07:13:15;;;;;;;2.83;2.60;;;;;;;;;;5093957;28;20481;-74
2023/06/13 07:15:42;;;;;;;4.07;2.57;;;;;;;;;;5093805;28;20451;-74
2023/06/13 07:18:09;;;;;;;3.40;2.30;;;;;;;;;;5093798;28;20490;-74
2023/06/13 07:20:36;;;;;;;2.60;2.40;;;;;;;;;;5093593;28;20474;-75
2023/06/13 07:23:03;;;;;;;4.37;2.57;;;;;;;;;;5093783;28;20972;-75
2023/06/13 07:25:32;;;;;;;3.43;2.30;;;;;;;;;;5093586;28;21020;-75
2023/06/13 07:28:01;;;;;;;3.43;2.43;;;;;;;;;;5093624;28;20516;-75
2023/06/13 07:30:28;;;;;;;3.40;3.10;;;;;;;;;;5093326;28;20585;-75
2023/06/13 07:32:55;;;;;;;4.07;2.70;;;;;;;;;;5093528;28;20462;-75
2023/06/13 07:35:23;;;;;;;6.30;2.67;;;;;;;;;;5093397;28;20447;-75
2023/06/13 07:37:50;;;;;;;4.00;2.30;;;;;;;;;;5093209;28;20486;-75
2023/06/13 07:40:18;;;;;;;6.30;2.77;;;;;;;;;;5093113;28;20470;-75
2023/06/13 07:42:45;;;;;;;3.77;2.50;;;;;;;;;;5093165;28;20454;-75
2023/06/13 07:45:14;;;;;;;3.00;2.43;;;;;;;;;;5093428;28;20467;-75
2023/06/13 07:47:41;;;;;;;4.00;2.83;;;;;;;;;;5093238;28;20478;-75
2023/06/13 07:50:08;;;;;;;4.57;3.10;;;;;;;;;;5092819;28;20471;-76
2023/06/13 07:52:35;;;;;;;3.77;2.80;;;;;;;;;;5092918;28;20483;-75
2023/06/13 07:55:03;;;;;;;5.80;4.50;;;;;;;;;;5093339;28;20456;-75
2023/06/13 07:57:30;;;;;;;6.53;2.60;;;;;;;;;;5092842;28;20490;-74
2023/06/13 07:59:57;;;;;;;2.90;2.53;;;;;;;;;;5092956;28;20470;-74
2023/06/13 08:02:26;;;;;;;3.73;2.93;;;;;;;;;;5093116;28;20462;-75
2023/06/13 08:04:53;;;;;;;7.37;3.93;;;;;;;;;;5092405;28;20458;-75
2023/06/13 08:07:20;;;;;;;3.13;2.20;;;;;;;;;;5092995;28;20459;-75
2023/06/13 08:09:47;;;;;;;7.27;2.70;;;;;;;;;;5092850;28;20466;-75
2023/06/13 08:12:14;;;;;;;3.50;2.57;;;;;;;;;;5090287;28;20454;-75
2023/06/13 08:14:41;;;;;;;4.00;3.30;;;;;;;;;;5080790;28;20485;-76
2023/06/13 08:17:08;;;;;;;6.70;2.77;;;;;;;;;;5071099;28;20487;-76
2023/06/13 08:19:38;;;;;;;3.17;2.87;;;;;;;;;;5071033;28;20471;-75
2023/06/13 08:22:05;;;;;;;2.90;2.30;;;;;;;;;;5071062;28;21027;-76
2023/06/13 08:24:33;;;;;;;3.00;2.63;;;;;;;;;;5071173;28;20452;-75
2023/06/13 08:27:00;;;;;;;10.53;3.30;;;;;;;;;;5071009;28;20446;-75
2023/06/13 08:29:28;;;;;;;6.63;3.20;;;;;;;;;;5070962;28;20479;-75
2023/06/13 08:31:55;;;;;;;5.23;2.70;;;;;;;;;;5071050;28;20483;-75
2023/06/13 08:34:23;;;;;;;4.37;2.77;;;;;;;;;;5070670;28;20457;-75
2023/06/13 08:36:51;;;;;;;3.23;2.73;;;;;;;;;;5070815;28;20460;-75
2023/06/13 08:39:19;;;;;;;7.73;2.87;;;;;;;;;;5070800;28;20478;-75
2023/06/13 08:41:46;;;;;;;3.33;3.03;;;;;;;;;;5070853;28;21036;-75
2023/06/13 08:44:14;;;;;;;3.97;2.53;;;;;;;;;;5070596;28;20466;-75
2023/06/13 08:46:41;;;;;;;6.53;3.70;;;;;;;;;;5071162;28;20447;-75
2023/06/13 08:49:08;;;;;;;5.63;2.90;;;;;;;;;;5069998;28;20456;-75
2023/06/13 08:51:37;;;;;;;3.93;2.90;;;;;;;;;;5071339;28;21020;-75
2023/06/13 08:54:06;;;;;;;3.80;2.70;;;;;;;;;;5071192;28;20463;-75
2023/06/13 08:56:35;;;;;;;3.60;3.20;;;;;;;;;;5070391;28;20451;-74
2023/06/13 08:59:04;;;;;;;3.03;2.33;;;;;;;;;;5070245;28;20523;-72
2023/06/13 09:01:32;;;;;;;3.57;3.00;;;;;;;;;;5070588;28;20463;-72
2023/06/13 09:03:59;;;;;;;3.50;2.20;;;;;;;;;;5070704;28;20479;-71
2023/06/13 09:06:27;;;;;;;3.80;2.90;;;;;;;;;;5070677;28;20451;-71
2023/06/13 09:08:55;;;;;;;3.70;3.30;;;;;;;;;;5070367;28;20538;-74
2023/06/13 09:11:24;;;;;;;4.40;2.67;;;;;;;;;;5070562;28;20476;-75
2023/06/13 09:13:52;;;;;;;3.27;2.97;;;;;;;;;;5070545;28;20779;-73
2023/06/13 09:16:19;;;;;;;7.13;2.03;;;;;;;;;;5071733;28;20458;-73
2023/06/13 09:18:46;;;;;;;3.07;2.70;;;;;;;;;;5074327;28;20494;-73
2023/06/13 09:21:13;;;;;;;8.13;2.80;;;;;;;;;;5074831;28;20495;-74
2023/06/13 09:23:41;;;;;;;3.70;3.20;;;;;;;;;;5075132;28;20442;-73
2023/06/13 09:26:10;;;;;;;4.77;2.90;;;;;;;;;;5074256;28;20454;-73
2023/06/13 09:28:40;;;;;;;3.60;2.70;;;;;;;;;;5074349;28;20463;-74
2023/06/13 09:31:08;;;;;;;3.20;2.90;;;;;;;;;;5074799;28;20475;-73
2023/06/13 09:33:35;;;;;;;5.43;2.40;;;;;;;;;;5074556;28;20538;-72
2023/06/13 09:36:02;;;;;;;3.77;3.10;;;;;;;;;;5074442;28;20940;-73
2023/06/13 09:38:29;;;;;;;3.30;3.00;;;;;;;;;;5074028;28;20488;-73
2023/06/13 09:40:57;;;;;;;7.10;3.10;;;;;;;;;;5074406;28;20498;-73
2023/06/13 09:43:25;;;;;;;4.50;2.73;;;;;;;;;;5074653;28;20904;-73
2023/06/13 09:45:54;;;;;;;5.40;3.10;;;;;;;;;;5074007;28;20459;-73
2023/06/13 09:48:21;;;;;;;6.93;2.73;;;;;;;;;;5073631;28;20479;-72
2023/06/13 09:50:48;;;;;;;3.17;2.30;;;;;;;;;;5074213;28;20479;-73
2023/06/13 09:53:16;;;;;;;3.97;2.43;;;;;;;;;;5074340;28;20458;-73
2023/06/13 09:55:43;;;;;;;3.30;3.00;;;;;;;;;;5073941;28;20447;-73
2023/06/13 09:58:10;;;;;;;3.40;2.77;;;;;;;;;;5073862;28;20483;-73
2023/06/13 10:00:37;;;;;;;3.50;3.10;;;;;;;;;;5074933;28;20491;-73
2023/06/13 10:03:06;;;;;;;4.40;2.90;;;;;;;;;;5074569;28;20458;-74
2023/06/13 10:05:33;;;;;;;6.07;2.60;;;;;;;;;;5074651;28;20455;-73
2023/06/13 10:08:00;;;;;;;5.13;2.90;;;;;;;;;;5074719;28;20448;-73
2023/06/13 10:10:27;;;;;;;4.50;2.70;;;;;;;;;;5074565;28;20988;-73
2023/06/13 10:12:57;;;;;;;3.67;2.17;;;;;;;;;;5075045;28;20454;-73
2023/06/13 10:15:29;;;;;;;3.33;2.30;;;;;;;;;;5074951;28;20451;-73
2023/06/13 10:17:59;;;;;;;3.87;3.00;;;;;;;;;;5074075;28;20487;-73
2023/06/13 10:20:28;;;;;;;8.33;2.57;;;;;;;;;;5074759;28;20476;-73
2023/06/13 10:22:56;;;;;;;3.93;2.53;;;;;;;;;;5075038;28;20459;-73
2023/06/13 10:25:25;;;;;;;4.30;2.60;;;;;;;;;;5074790;28;20452;-73
2023/06/13 10:27:53;;;;;;;3.33;2.67;;;;;;;;;;5074116;28;20444;-72
2023/06/13 10:30:28;;;;;;;4.13;2.77;;;;;;;;;;5074229;28;20495;-73
2023/06/13 10:33:13;;;;;;;3.40;2.40;;;;;;;;;;5074685;28;21014;-73
2023/06/13 10:35:55;;;;;;;3.57;2.80;;;;;;;;;;5074658;28;20459;-73
2023/06/13 10:38:48;;;;;;;3.70;2.77;;;;;;;;;;5074305;28;20483;-73
2023/06/13 10:41:45;;;;;;;3.00;2.30;;;;;;;;;;5074582;28;20547;-72
2023/06/13 10:44:15;;;;;;;3.30;2.60;;;;;;;;;;5074308;28;20447;-73
2023/06/13 10:46:42;;;;;;;4.13;2.70;;;;;;;;;;5073975;28;20828;-73
2023/06/13 10:49:15;;;;;;;4.27;2.67;;;;;;;;;;5074191;28;20489;-72
2023/06/13 10:51:44;;;;;;;5.20;2.50;;;;;;;;;;5074420;28;20471;-72
2023/06/13 10:54:12;;;;;;;4.80;3.43;;;;;;;;;;5074459;28;20903;-73
2023/06/13 10:56:41;;;;;;;6.10;3.43;;;;;;;;;;5074017;28;21001;-73
2023/06/13 10:59:09;;;;;;;3.33;2.60;;;;;;;;;;5073033;28;20483;-73
2023/06/13 11:01:36;;;;;;;4.93;2.63;;;;;;;;;;5072624;28;20456;-73
2023/06/13 11:04:07;;;;;;;8.97;3.00;;;;;;;;;;5073128;28;20455;-73
2023/06/13 11:06:35;;;;;;;12.47;3.27;;;;;;;;;;5073221;28;20462;-73
2023/06/13 11:09:20;;;;;;;3.77;2.97;;;;;;;;;;5072466;28;20451;-73
2023/06/13 11:11:48;;;;;;;3.67;2.90;;;;;;;;;;5073336;28;20462;-73
2023/06/13 11:14:15;;;;;;;5.53;2.60;;;;;;;;;;5073231;28;20452;-73
2023/06/13 11:16:45;;;;;;;6.27;2.50;;;;;;;;;;5074073;28;20464;-73
2023/06/13 11:19:14;;;;;;;4.00;2.80;;;;;;;;;;5073572;28;20491;-73
2023/06/13 11:21:45;;;;;;;3.80;2.67;;;;;;;;;;5074027;28;20477;-73
2023/06/13 11:24:14;;;;;;;3.23;2.93;;;;;;;;;;5073632;28;20452;-73
2023/06/13 11:26:43;;;;;;;3.20;2.20;;;;;;;;;;5073714;28;20530;-73
2023/06/13 11:29:11;;;;;;;4.30;2.90;;;;;;;;;;5073434;28;20467;-73
2023/06/13 11:31:39;;;;;;;5.23;2.97;;;;;;;;;;5074092;28;20458;-74
2023/06/13 11:34:07;;;;;;;5.63;2.60;;;;;;;;;;5072728;28;20460;-73
2023/06/13 11:36:37;;;;;;;6.13;2.90;;;;;;;;;;5072070;28;20451;-73
2023/06/13 11:39:05;;;;;;;3.60;3.10;;;;;;;;;;5090179;28;20873;-73
2023/06/13 11:41:33;;;;;;;2.73;2.53;;;;;;;;;;5091971;28;20886;-73
2023/06/13 11:44:01;;;;;;;3.23;2.60;;;;;;;;;;5092263;28;20572;-73
2023/06/13 11:46:28;;;;;;;6.10;2.93;;;;;;;;;;5091821;28;20951;-73
2023/06/13 11:48:55;;;;;;;3.20;2.90;;;;;;;;;;5092195;28;20880;-73
2023/06/13 11:51:22;;;;;;;10.10;2.53;;;;;;;;;;5071690;28;20810;-73
2023/06/13 11:53:50;;;;;;;3.73;2.60;;;;;;;;;;5071659;28;20455;-73
2023/06/13 11:56:18;;;;;;;3.30;2.83;;;;;;;;;;5071520;28;21033;-73
2023/06/13 11:58:46;;;;;;;3.47;2.90;;;;;;;;;;5071476;28;20515;-73
2023/06/13 12:01:16;;;;;;;5.67;3.17;;;;;;;;;;5071239;28;21010;-73
2023/06/13 12:03:43;;;;;;;3.90;2.43;;;;;;;;;;5071526;28;20477;-73
2023/06/13 12:06:10;;;;;;;5.80;3.17;;;;;;;;;;5071400;28;20447;-73
2023/06/13 12:08:40;;;;;;;4.03;2.67;;;;;;;;;;5071039;28;20799;-73
2023/06/13 12:11:07;;;;;;;4.33;2.87;;;;;;;;;;5071330;28;20480;-73
2023/06/13 12:13:34;;;;;;;3.90;2.63;;;;;;;;;;5071733;28;20459;-73
2023/06/13 12:16:01;;;;;;;4.10;2.83;;;;;;;;;;5071157;28;20452;-72
2023/06/13 12:18:30;;;;;;;4.20;2.30;;;;;;;;;;5071101;28;20495;-73
2023/06/13 12:20:59;;;;;;;6.40;2.73;;;;;;;;;;5071329;28;20468;-73
2023/06/13 12:23:27;;;;;;;3.43;2.63;;;;;;;;;;5072428;28;20909;-72
2023/06/13 12:25:55;;;;;;;3.77;3.40;;;;;;;;;;5072383;28;20530;-72
2023/06/13 12:28:23;;;;;;;6.00;3.70;;;;;;;;;;5072351;28;20478;-73
2023/06/13 12:30:51;;;;;;;4.93;3.17;;;;;;;;;;5072385;28;20582;-72
2023/06/13 12:33:19;;;;;;;3.53;3.10;;;;;;;;;;5072463;28;20452;-72
2023/06/13 12:35:52;;;;;;;5.40;2.77;;;;;;;;;;5072640;28;20513;-72
2023/06/13 12:38:20;;;;;;;2.90;2.40;;;;;;;;;;5072168;28;20860;-73
2023/06/13 12:40:51;;;;;;;5.23;2.17;;;;;;;;;;5072648;28;20561;-72
2023/06/13 12:43:19;;;;;;;4.03;3.03;;;;;;;;;;5072955;28;20550;-72
2023/06/13 12:45:46;;;;;;;4.23;2.73;;;;;;;;;;5072522;28;20447;-72
2023/06/13 12:48:17;;;;;;;7.53;3.30;;;;;;;;;;5072358;28;20451;-72
2023/06/13 12:50:44;;;;;;;5.10;2.73;;;;;;;;;;5071928;28;20504;-73
2023/06/13 12:53:13;;;;;;;3.80;2.80;;;;;;;;;;5072246;28;20444;-72
2023/06/13 12:55:41;;;;;;;6.10;3.10;;;;;;;;;;5072361;28;20447;-72
2023/06/13 12:58:26;;;;;;;3.40;2.90;;;;;;;;;;5072113;28;20853;-72
2023/06/13 13:00:53;;;;;;;3.80;2.97;;;;;;;;;;5062362;28;20526;-72
2023/06/13 13:03:21;;;;;;;5.77;3.53;;;;;;;;;;5072021;28;20452;-72
2023/06/13 13:05:49;;;;;;;4.00;3.00;;;;;;;;;;5072213;28;20451;-72
2023/06/13 13:08:18;;;;;;;5.43;3.60;;;;;;;;;;5071651;28;20454;-73
2023/06/13 13:10:47;;;;;;;3.70;2.60;;;;;;;;;;5072305;28;20551;-73
2023/06/13 13:13:14;;;;;;;5.47;3.23;;;;;;;;;;5072123;28;20457;-73
2023/06/13 13:15:41;;;;;;;3.50;3.00;;;;;;;;;;5072222;28;20444;-73
2023/06/13 13:18:09;;;;;;;4.00;3.10;;;;;;;;;;5071897;28;20945;-73
2023/06/13 13:20:36;;;;;;;3.33;3.03;;;;;;;;;;5072779;28;20468;-73
2023/06/13 13:23:03;;;;;;;5.10;2.87;;;;;;;;;;5092071;28;21019;-72
2023/06/13 13:25:33;;;;;;;3.93;3.00;;;;;;;;;;5092264;28;20443;-72
2023/06/13 13:28:00;;;;;;;5.33;3.03;;;;;;;;;;5092278;28;21017;-72
2023/06/13 13:30:27;;;;;;;4.10;3.47;;;;;;;;;;5091734;28;20466;-72
2023/06/13 13:32:54;;;;;;;3.50;3.00;;;;;;;;;;5091224;28;20462;-72
2023/06/13 13:35:21;;;;;;;3.67;2.70;;;;;;;;;;5092025;28;20469;-72
2023/06/13 13:37:49;;;;;;;3.30;3.00;;;;;;;;;;5092083;28;20466;-72
2023/06/13 13:40:17;;;;;;;4.07;3.00;;;;;;;;;;5091803;28;20490;-73
2023/06/13 13:42:45;;;;;;;6.03;3.00;;;;;;;;;;5092135;28;20443;-73
2023/06/13 13:45:13;;;;;;;3.43;2.63;;;;;;;;;;5092209;28;20462;-73
2023/06/13 13:47:40;;;;;;;5.57;3.00;;;;;;;;;;5092207;28;20503;-73
2023/06/13 13:50:08;;;;;;;3.17;2.87;;;;;;;;;;5091817;28;20648;-73
2023/06/13 13:52:35;;;;;;;3.53;3.07;;;;;;;;;;5091893;28;20455;-73
2023/06/13 13:55:02;;;;;;;5.03;2.87;;;;;;;;;;5091950;28;20944;-73
2023/06/13 13:57:29;;;;;;;4.00;2.67;;;;;;;;;;5091746;28;20805;-73
2023/06/13 13:59:59;;;;;;;3.87;3.07;;;;;;;;;;5091609;28;20493;-73
2023/06/13 14:02:26;;;;;;;5.37;2.87;;;;;;;;;;5091906;28;20493;-73
2023/06/13 14:04:53;;;;;;;3.33;2.83;;;;;;;;;;5095631;28;20537;-73
2023/06/13 14:07:22;;;;;;;3.70;2.93;;;;;;;;;;5094837;28;20451;-73
2023/06/13 14:09:49;;;;;;;5.97;3.10;;;;;;;;;;5094915;28;20474;-73
2023/06/13 14:12:16;;;;;;;4.10;3.00;;;;;;;;;;5095285;28;20474;-73
2023/06/13 14:14:43;;;;;;;3.10;2.53;;;;;;;;;;5095565;28;20454;-73
2023/06/13 14:17:12;;;;;;;5.40;2.90;;;;;;;;;;5094688;28;20458;-73
2023/06/13 14:19:39;;;;;;;5.53;3.40;;;;;;;;;;5095027;28;20494;-73
2023/06/13 14:22:07;;;;;;;2.50;2.30;;;;;;;;;;5094240;28;20460;-73
2023/06/13 14:24:34;;;;;;;3.97;2.63;;;;;;;;;;5095556;28;20969;-73
2023/06/13 14:27:01;;;;;;;3.43;3.10;;;;;;;;;;5095263;28;20451;-73
2023/06/13 14:29:29;;;;;;;6.10;3.10;;;;;;;;;;5095322;28;20473;-73
2023/06/13 14:31:57;;;;;;;4.20;2.70;;;;;;;;;;5094994;28;20512;-73
2023/06/13 14:34:28;;;;;;;3.03;2.73;;;;;;;;;;5094960;28;20958;-73
2023/06/13 14:36:55;;;;;;;5.90;2.80;;;;;;;;;;5095007;28;20450;-73
2023/06/13 14:39:22;;;;;;;3.47;2.80;;;;;;;;;;5094661;28;21025;-73
2023/06/13 14:41:50;;;;;;;4.70;2.63;;;;;;;;;;5095149;28;20458;-73
2023/06/13 14:44:17;;;;;;;4.10;3.30;;;;;;;;;;5094775;28;20974;-73
2023/06/13 14:46:44;;;;;;;5.00;3.23;;;;;;;;;;5094958;28;20503;-73
2023/06/13 14:49:11;;;;;;;3.80;3.00;;;;;;;;;;5094595;28;20471;-73